Washington, MI (48095)

10:45 PM EDT on August 29, 2015 (GMT -0400)
Washington, MI | | Change Station
CLOSE
Current Station
Personal Weather Station
Location: Washington, MI
Elevation: 846 ft
Nearby Weather Stations

Elev 846 ft 42.79 °N, 83.04 °W | Updated 17 seconds ago

Overcast
Overcast
65.0 °F
Feels Like 65.0 °F
N
0.0
Wind Variable Wind from NNE
Gusts 0.0 mph

Today
High -- | Low -- °F
--% Chance of Precip.
Yesterday
High -- | Low -- °F
Precip. -- in
6:53 AM 8:12 PM
Full, 100% visible
Pressure 30.07 in
Visibility 9.0 miles
Clouds Few 3700 ft
Scattered Clouds 10000 ft
Dew Point 64 °F
Humidity 98%
Rainfall 0.05 in
Snow Depth Not available.
UV 0 out of 12
Pollen 8.60 out of 12
Air Quality Not available.
Flu Activity Not available.
SPECI KMTC 300236Z AUTO 36002KT 9SM R19/5500FT -RA FEW037 SCT100 20/19 A3007 RMK AO2 RAB31
Pressure 30.07 in
Visibility 9.0 miles
Clouds Few 3700 ft
Scattered Clouds 10000 ft
Dew Point 64 °F
Humidity 98%
Rainfall 0.05 in
Snow Depth Not available.
UV 0 out of 12
Pollen 8.60 out of 12
Air Quality Not available.
Flu Activity Not available.
SPECI KMTC 300236Z AUTO 36002KT 9SM R19/5500FT -RA FEW037 SCT100 20/19 A3007 RMK AO2 RAB31

10-Day Weather Forecast

×

Almanac

Astronomy

Aug. 29, 2015 Rise Set
Actual Time
Civil Twilight
Nautical Twilight
Astronomical Twilight
Moon
Length of Visible Light
Length of Day
Tomorrow will be .
, % of the Moon is Illuminated

Today's Extremes

State Highs State Lows

Community

WunderPhotos

Upload Photos

1,850,855 photos uploaded!

WunderBlogs® & News

Nearby

Air Quality

  Air Quality AQ Index Pollutant
Not available.

Snow Depth

Station Depth Elevation

Earthquake Activity

City Distance Mag. Time & Date
Minimum magnitude displayed is 2.5.

Coastal Water Temperatures

Place Temperature

Stations

Nearby Weather Stations

Station Location Temp. Windchill Dew Point Humidity Wind Precip. Elev Updated Type